createdAt,value
2018-07-19T19:54:56.111Z,44.00
2018-07-19T19:57:25.350Z,62.60
2018-07-19T19:59:54.314Z,63.00
2018-07-19T20:02:23.650Z,63.60
2018-07-19T20:04:53.018Z,64.90
2018-07-19T20:07:22.142Z,65.60
2018-07-19T20:09:51.550Z,67.10
2018-07-19T20:12:20.717Z,67.60
2018-07-19T20:14:49.850Z,68.60
2018-07-19T20:17:19.205Z,70.30
2018-07-19T20:19:48.494Z,71.30
2018-07-19T20:22:17.785Z,72.60
2018-07-19T20:24:47.202Z,73.40
2018-07-19T20:27:16.883Z,74.70
2018-07-19T20:29:46.146Z,75.80
2018-07-19T20:32:15.436Z,76.00
2018-07-19T20:34:44.493Z,77.80
2018-07-19T20:37:13.614Z,78.70
2018-07-19T20:39:42.813Z,80.20
2018-07-19T20:42:12.087Z,80.80
2018-07-19T20:44:41.619Z,82.20
2018-07-19T20:47:10.889Z,83.60
2018-07-19T20:49:40.005Z,85.30
2018-07-19T20:52:09.156Z,86.80
2018-07-19T20:54:38.269Z,87.20
2018-07-19T20:57:07.498Z,88.50
2018-07-19T20:59:36.930Z,89.60
2018-07-19T21:02:06.281Z,90.40
2018-07-19T21:04:35.631Z,90.90
2018-07-19T21:07:05.346Z,91.50
2018-07-19T21:09:34.602Z,91.80
2018-07-19T21:12:03.594Z,91.60
2018-07-19T21:14:32.765Z,92.10
2018-07-19T21:17:02.164Z,92.60
2018-07-19T21:21:59.973Z,93.50
2018-07-19T21:24:29.000Z,93.70
2018-07-19T21:26:58.561Z,94.30
2018-07-19T21:29:27.561Z,94.60
2018-07-19T21:31:56.849Z,94.70
2018-07-19T21:36:55.257Z,95.40
2018-07-19T21:39:24.557Z,95.60
2018-07-19T21:41:53.863Z,95.90
2018-07-19T21:44:23.234Z,96.40
2018-07-19T21:46:55.529Z,96.70
2018-07-19T21:49:24.692Z,96.90
2018-07-19T21:51:53.717Z,97.10
2018-07-19T21:54:23.085Z,97.50
2018-07-19T21:56:53.330Z,97.40
2018-07-19T21:59:22.650Z,97.60
2018-07-19T22:01:51.907Z,97.60
2018-07-19T22:04:21.039Z,98.10
2018-07-19T22:06:50.382Z,98.60
2018-07-19T22:09:22.587Z,98.10
2018-07-19T22:11:52.224Z,98.00
2018-07-19T22:14:21.481Z,97.80
2018-07-19T22:16:50.736Z,97.60
2018-07-19T22:19:20.076Z,98.10
2018-07-19T22:21:49.195Z,98.40
2018-07-19T22:24:18.677Z,98.40
2018-07-19T22:26:47.927Z,98.60
2018-07-19T22:29:17.257Z,99.00
2018-07-19T22:31:46.285Z,99.00
2018-07-19T22:34:15.486Z,98.80
2018-07-19T22:36:44.685Z,98.20
2018-07-19T22:39:13.985Z,98.20
2018-07-19T22:41:43.274Z,98.10
2018-07-19T22:44:12.266Z,98.50
2018-07-19T22:46:41.434Z,99.00
2018-07-19T22:49:10.856Z,98.80
2018-07-19T22:51:39.958Z,99.20
2018-07-19T22:54:09.049Z,99.20
2018-07-19T22:56:38.246Z,99.00
2018-07-19T22:59:07.498Z,99.30
2018-07-19T23:01:36.489Z,99.50
2018-07-19T23:04:05.727Z,99.70
2018-07-19T23:06:34.801Z,99.70
2018-07-19T23:09:04.719Z,99.90
2018-07-19T23:11:34.165Z,99.70
2018-07-19T23:14:03.313Z,99.90
2018-07-19T23:16:32.436Z,99.80
2018-07-19T23:19:01.704Z,99.90
2018-07-19T23:21:30.934Z,99.90
2018-07-19T23:24:00.126Z,99.90
2018-07-19T23:26:29.374Z,99.90
2018-07-19T23:28:58.686Z,99.90
2018-07-19T23:31:27.998Z,99.90
2018-07-19T23:33:57.218Z,99.90
2018-07-19T23:36:29.402Z,99.90
2018-07-19T23:39:03.582Z,99.90
2018-07-19T23:41:37.025Z,99.90
2018-07-19T23:44:10.575Z,99.90
2018-07-19T23:46:45.477Z,99.90
2018-07-19T23:49:14.718Z,99.90
2018-07-19T23:51:43.990Z,99.90
2018-07-19T23:54:13.227Z,99.90
2018-07-19T23:56:42.417Z,99.90
2018-07-19T23:59:11.643Z,99.90
